createdAt,value
2018-08-28T00:15:37.946Z,99.90
2018-08-28T00:18:06.537Z,99.90
2018-08-28T00:20:35.775Z,99.90
2018-08-28T00:23:04.299Z,99.90
2018-08-28T00:25:32.903Z,99.90
2018-08-28T00:28:01.909Z,99.90
2018-08-28T00:47:52.924Z,99.90
2018-08-28T00:50:22.187Z,99.90
2018-08-28T01:10:12.795Z,99.90
2018-08-28T01:12:41.331Z,99.90
2018-08-28T01:15:09.791Z,99.90
2018-08-28T01:17:39.551Z,99.90
2018-08-28T01:20:09.305Z,99.90
2018-08-28T01:22:37.765Z,99.90
2018-08-28T01:25:06.849Z,99.90
2018-08-28T01:44:57.058Z,99.90
2018-08-28T01:47:25.694Z,99.90
2018-08-28T01:49:54.214Z,99.90
2018-08-28T01:52:22.706Z,99.90
2018-08-28T01:54:51.499Z,99.90
2018-08-28T01:57:19.913Z,99.90
2018-08-28T01:59:49.023Z,99.90
2018-08-28T02:02:17.961Z,99.90
2018-08-28T02:22:07.956Z,99.90
2018-08-28T02:24:36.774Z,99.90
2018-08-28T02:27:06.802Z,99.90
2018-08-28T02:29:35.252Z,99.90
2018-08-28T02:32:04.100Z,99.90
2018-08-28T02:34:32.641Z,99.90
2018-08-28T02:37:01.705Z,99.90
2018-08-28T02:39:32.151Z,99.90
2018-08-28T02:42:00.672Z,99.90
2018-08-28T02:44:29.312Z,99.90
2018-08-28T02:46:57.983Z,99.90
2018-08-28T02:49:27.537Z,99.90
2018-08-28T02:51:56.135Z,99.90
2018-08-28T02:54:24.867Z,99.90
2018-08-28T02:56:53.997Z,99.90
2018-08-28T02:59:22.606Z,99.90
2018-08-28T03:01:51.448Z,99.90
2018-08-28T03:04:20.638Z,99.90
2018-08-28T03:06:49.138Z,99.90
2018-08-28T03:09:17.895Z,99.90
2018-08-28T03:11:46.571Z,99.90
2018-08-28T03:14:16.370Z,99.90
2018-08-28T03:16:45.092Z,99.90
2018-08-28T03:19:13.520Z,99.90
2018-08-28T03:39:05.270Z,99.90
2018-08-28T03:41:34.571Z,99.90
2018-08-28T03:44:03.299Z,99.90
2018-08-28T03:46:33.277Z,99.90
2018-08-28T04:06:23.118Z,99.90
2018-08-28T04:08:52.087Z,99.90
2018-08-28T04:11:20.592Z,99.90
2018-08-28T04:13:49.026Z,99.90
2018-08-28T04:16:17.874Z,99.90
2018-08-28T04:18:46.472Z,99.90
2018-08-28T04:21:14.873Z,99.90
2018-08-28T04:23:43.507Z,99.90
2018-08-28T04:26:11.979Z,99.90
2018-08-28T04:28:40.422Z,99.90
2018-08-28T04:31:10.611Z,99.90
2018-08-28T04:33:39.105Z,99.90
2018-08-28T04:53:30.992Z,99.90
2018-08-28T04:55:59.595Z,99.90
2018-08-28T04:58:28.725Z,99.90
2018-08-28T05:00:57.901Z,99.90
2018-08-28T05:03:28.149Z,99.90
2018-08-28T05:05:56.594Z,99.90
2018-08-28T05:08:25.213Z,99.90
2018-08-28T05:10:53.685Z,99.90
2018-08-28T05:13:22.389Z,99.90
2018-08-28T05:15:50.920Z,99.90
2018-08-28T05:35:39.656Z,99.90
2018-08-28T05:38:08.413Z,99.90
2018-08-28T05:40:38.464Z,99.90
2018-08-28T05:43:06.953Z,99.90
2018-08-28T05:45:38.141Z,99.90
2018-08-28T05:48:06.655Z,99.90
2018-08-28T05:50:35.124Z,99.90
2018-08-28T05:53:04.184Z,99.90
2018-08-28T05:55:32.697Z,99.90
2018-08-28T05:58:02.004Z,99.90
2018-08-28T06:00:30.631Z,99.90
2018-08-28T06:02:59.184Z,99.90
2018-08-28T06:05:28.870Z,99.90
2018-08-28T06:07:57.402Z,99.90
2018-08-28T06:10:25.882Z,99.90
2018-08-28T06:12:54.361Z,99.90
2018-08-28T06:32:43.595Z,99.90
2018-08-28T06:35:12.651Z,99.90
2018-08-28T06:37:41.211Z,99.90
2018-08-28T06:40:10.197Z,99.90
2018-08-28T07:00:01.034Z,99.90
2018-08-28T07:02:30.093Z,99.90
2018-08-28T07:04:59.610Z,99.90
2018-08-28T07:07:28.097Z,99.90
2018-08-28T07:09:56.990Z,99.90
2018-08-28T07:12:25.883Z,99.90
2018-08-28T07:14:54.755Z,99.90
2018-08-28T07:17:23.582Z,99.90
2018-08-28T07:19:52.672Z,99.90
2018-08-28T07:22:23.017Z,99.90
2018-08-28T07:24:52.641Z,99.90
2018-08-28T07:27:21.904Z,99.90
2018-08-28T07:29:50.483Z,99.90
2018-08-28T07:32:20.202Z,99.90
2018-08-28T07:34:48.639Z,99.90
2018-08-28T07:37:18.561Z,99.90
2018-08-28T07:39:47.068Z,99.90
2018-08-28T07:42:15.686Z,99.90
2018-08-28T07:44:44.148Z,99.90
2018-08-28T07:47:12.726Z,99.90
2018-08-28T07:49:41.250Z,99.90
2018-08-28T07:52:10.723Z,99.90
2018-08-28T07:54:39.438Z,99.90
2018-08-28T07:57:08.482Z,99.90
2018-08-28T07:59:37.084Z,99.90
2018-08-28T08:02:06.236Z,99.90
2018-08-28T08:04:36.623Z,99.90
2018-08-28T08:07:05.575Z,99.90
2018-08-28T08:09:34.245Z,99.90
2018-08-28T08:12:02.773Z,99.90
2018-08-28T08:14:31.413Z,99.90
2018-08-28T08:17:00.109Z,99.90
2018-08-28T08:19:29.557Z,99.90
2018-08-28T08:21:58.180Z,99.90
2018-08-28T08:24:26.889Z,99.90
2018-08-28T08:26:55.407Z,99.90
2018-08-28T08:29:23.922Z,99.90
2018-08-28T08:31:54.466Z,99.90
2018-08-28T08:34:23.705Z,99.90
2018-08-28T08:36:53.273Z,99.90
2018-08-28T08:39:21.923Z,99.90
2018-08-28T08:41:50.587Z,99.90
2018-08-28T09:01:41.466Z,99.90
2018-08-28T09:04:10.654Z,99.90
2018-08-28T09:06:40.082Z,99.90
2018-08-28T09:09:09.339Z,99.90
2018-08-28T09:11:37.864Z,99.90
2018-08-28T09:14:06.422Z,99.90
2018-08-28T09:16:34.917Z,99.90
2018-08-28T09:19:04.355Z,99.90
2018-08-28T09:21:32.822Z,99.90
2018-08-28T09:24:02.003Z,99.90
2018-08-28T09:26:30.532Z,99.90
2018-08-28T09:28:59.025Z,99.90
2018-08-28T09:31:27.880Z,99.90
2018-08-28T09:33:56.428Z,99.90
2018-08-28T09:36:25.393Z,99.90
2018-08-28T09:38:55.866Z,99.90
2018-08-28T09:41:24.453Z,99.90
2018-08-28T09:43:52.971Z,99.90
2018-08-28T09:46:21.745Z,99.90
2018-08-28T09:48:50.193Z,99.90
2018-08-28T09:51:18.658Z,99.90
2018-08-28T09:53:49.702Z,99.90
2018-08-28T09:56:18.186Z,99.90
2018-08-28T09:58:46.661Z,99.90
2018-08-28T10:01:21.350Z,99.90
2018-08-28T10:03:50.813Z,99.90
2018-08-28T10:06:19.311Z,99.90
2018-08-28T10:08:48.135Z,99.90
2018-08-28T10:11:16.672Z,99.90
2018-08-28T10:13:45.982Z,99.90
2018-08-28T10:33:36.052Z,99.90
2018-08-28T10:36:05.314Z,99.90
2018-08-28T10:38:33.911Z,99.90
2018-08-28T10:41:02.642Z,99.90
2018-08-28T10:43:31.218Z,99.90
2018-08-28T10:45:59.746Z,99.90
2018-08-28T10:48:28.607Z,99.70
2018-08-28T10:50:57.047Z,99.90
2018-08-28T10:53:25.536Z,98.20
2018-08-28T10:55:54.470Z,97.90
2018-08-28T10:58:22.979Z,97.30
2018-08-28T11:00:52.106Z,96.80
2018-08-28T11:03:21.266Z,96.30
2018-08-28T11:23:11.696Z,93.30
2018-08-28T11:25:40.492Z,94.00
2018-08-28T11:28:10.016Z,93.60
2018-08-28T11:30:38.511Z,92.60
2018-08-28T11:33:07.181Z,92.80
2018-08-28T11:52:57.377Z,90.30
2018-08-28T11:55:26.986Z,90.20
2018-08-28T11:57:55.469Z,89.80
2018-08-28T12:00:24.079Z,89.20
2018-08-28T12:02:52.949Z,88.20
2018-08-28T12:22:42.299Z,87.10
2018-08-28T12:25:11.123Z,86.20
2018-08-28T12:27:39.599Z,86.10
2018-08-28T12:30:09.586Z,89.50
2018-08-28T12:32:38.343Z,87.30
2018-08-28T12:35:07.393Z,85.00
2018-08-28T12:37:35.983Z,83.10
2018-08-28T12:40:04.566Z,85.70
2018-08-28T12:42:33.066Z,85.50
2018-08-28T12:45:02.343Z,85.20
2018-08-28T12:47:31.170Z,87.00
2018-08-28T12:49:59.703Z,82.80
2018-08-28T12:52:29.474Z,82.70
2018-08-28T12:54:58.830Z,82.00
2018-08-28T12:57:27.375Z,81.00
2018-08-28T12:59:55.926Z,80.00
2018-08-28T13:02:24.675Z,78.20
2018-08-28T13:04:53.854Z,79.30
2018-08-28T13:07:22.672Z,79.40
2018-08-28T13:09:52.448Z,80.50
2018-08-28T13:12:20.948Z,80.40
2018-08-28T13:14:50.944Z,78.20
2018-08-28T13:17:20.441Z,77.80
2018-08-28T13:19:49.093Z,77.00
2018-08-28T13:22:17.528Z,76.80
2018-08-28T13:24:46.330Z,75.60
2018-08-28T13:27:15.102Z,73.60
2018-08-28T13:29:43.525Z,75.20
2018-08-28T13:32:12.578Z,72.80
2018-08-28T13:34:41.129Z,74.00
2018-08-28T13:37:10.947Z,70.30
2018-08-28T13:39:41.027Z,69.80
2018-08-28T13:42:09.767Z,70.60
2018-08-28T13:44:38.343Z,72.30
2018-08-28T14:04:28.811Z,65.90
2018-08-28T14:06:57.843Z,67.40
2018-08-28T14:09:26.447Z,65.40
2018-08-28T14:11:54.946Z,66.50
2018-08-28T14:14:23.445Z,63.30
2018-08-28T14:34:13.776Z,56.60
2018-08-28T14:36:44.526Z,55.10
2018-08-28T14:39:12.961Z,52.70
2018-08-28T14:41:41.830Z,53.10
2018-08-28T14:44:10.308Z,49.50
2018-08-28T14:46:38.793Z,49.90
2018-08-28T14:49:07.683Z,50.40
2018-08-28T14:51:36.277Z,49.00
2018-08-28T14:54:04.834Z,48.80
2018-08-28T14:56:34.981Z,48.10
2018-08-28T14:59:04.814Z,47.90
2018-08-28T15:18:55.790Z,47.70
2018-08-28T15:21:24.449Z,47.90
2018-08-28T15:23:52.980Z,47.50
2018-08-28T15:26:21.635Z,47.20
2018-08-28T15:46:11.552Z,46.10
2018-08-28T16:06:01.749Z,49.40
2018-08-28T16:08:30.182Z,50.80
2018-08-28T16:10:58.662Z,51.70
2018-08-28T16:13:27.361Z,52.60
2018-08-28T16:15:56.713Z,53.30
2018-08-28T16:35:46.851Z,58.00
2018-08-28T16:38:15.310Z,58.50
2018-08-28T16:40:43.851Z,59.30
2018-08-28T16:43:12.534Z,60.40
2018-08-28T16:45:41.558Z,60.60
2018-08-28T16:48:10.153Z,62.00
2018-08-28T17:08:00.662Z,62.80
2018-08-28T17:10:29.126Z,63.00
2018-08-28T17:12:57.633Z,62.10
2018-08-28T17:15:26.844Z,63.10
2018-08-28T17:17:57.034Z,63.90
2018-08-28T17:20:26.581Z,65.20
2018-08-28T17:22:56.075Z,65.90
2018-08-28T17:25:24.777Z,67.90
2018-08-28T17:27:53.256Z,70.70
2018-08-28T17:30:23.498Z,71.60
2018-08-28T17:32:52.038Z,73.20
2018-08-28T17:35:21.205Z,74.80
2018-08-28T17:37:49.933Z,75.50
2018-08-28T17:57:38.425Z,81.50
2018-08-28T18:00:07.627Z,83.30
2018-08-28T18:02:36.569Z,84.30
2018-08-28T18:05:05.701Z,83.80
2018-08-28T18:07:35.009Z,82.50
2018-08-28T18:10:03.621Z,84.10
2018-08-28T18:12:32.150Z,83.60
2018-08-28T18:32:21.040Z,91.50
2018-08-28T18:34:49.501Z,90.70
2018-08-28T18:37:17.968Z,90.50
2018-08-28T18:39:46.817Z,89.20
2018-08-28T18:59:36.985Z,90.50
2018-08-28T19:02:05.855Z,89.40
2018-08-28T19:04:34.624Z,88.90
2018-08-28T19:24:25.035Z,92.00
2018-08-28T19:26:53.902Z,92.30
2018-08-28T19:29:22.555Z,93.40
2018-08-28T19:31:52.289Z,93.40
2018-08-28T19:34:20.810Z,94.60
2018-08-28T19:36:49.270Z,95.50
2018-08-28T19:39:18.021Z,95.60
2018-08-28T19:41:47.438Z,96.00
2018-08-28T19:44:15.998Z,96.40
2018-08-28T20:04:06.157Z,99.90
2018-08-28T20:06:34.704Z,99.90
2018-08-28T20:09:03.340Z,99.90
2018-08-28T20:28:54.113Z,99.90
2018-08-28T20:31:22.677Z,99.90
2018-08-28T20:51:13.245Z,99.90
2018-08-28T20:53:41.821Z,99.90
2018-08-28T20:56:10.899Z,99.90
2018-08-28T20:58:39.370Z,99.90
2018-08-28T21:01:07.847Z,99.90
2018-08-28T21:03:36.386Z,99.90
2018-08-28T21:06:05.118Z,99.90
2018-08-28T21:08:33.672Z,99.90
2018-08-28T21:11:02.967Z,99.90
2018-08-28T21:13:31.605Z,99.90
2018-08-28T21:16:01.305Z,99.90
2018-08-28T21:18:29.885Z,99.90
2018-08-28T21:20:58.566Z,99.90
2018-08-28T21:23:27.223Z,99.90
2018-08-28T21:25:55.645Z,99.90
2018-08-28T21:28:24.251Z,99.90
2018-08-28T21:30:52.724Z,99.90
2018-08-28T21:33:21.308Z,99.90
2018-08-28T21:35:51.704Z,99.90
2018-08-28T21:38:20.258Z,99.90
2018-08-28T21:40:49.024Z,99.90
2018-08-28T21:43:18.065Z,99.90
2018-08-28T21:45:47.012Z,99.90
2018-08-28T21:48:16.192Z,99.90
2018-08-28T21:50:44.814Z,99.90
2018-08-28T21:53:13.969Z,99.90
2018-08-28T22:13:03.708Z,99.90
2018-08-28T22:15:32.157Z,99.90
2018-08-28T22:18:00.682Z,99.90
2018-08-28T22:20:30.350Z,99.90
2018-08-28T22:40:19.712Z,99.90
2018-08-28T22:42:48.467Z,99.90
2018-08-28T22:45:17.662Z,99.90
2018-08-28T22:47:46.618Z,99.90
2018-08-28T22:50:15.384Z,99.90
2018-08-28T22:52:43.775Z,99.90
2018-08-28T23:12:34.179Z,99.90
2018-08-28T23:15:02.817Z,99.90
2018-08-28T23:17:31.394Z,99.90
2018-08-28T23:37:22.138Z,99.90
2018-08-28T23:39:51.513Z,99.90
2018-08-28T23:42:19.968Z,99.90
